sensor_id;sensor_type;location;lat;lon;timestamp;pressure;altitude;pressure_sealevel;temperature;humidity
49515;BME280;35415;47.870;16.058;2023-03-11T00:01:34;95198.38;;;9.50;40.98
49515;BME280;35415;47.870;16.058;2023-03-11T00:04:08;95207.69;;;9.52;40.34
49515;BME280;35415;47.870;16.058;2023-03-11T00:06:36;95200.84;;;9.38;40.57
49515;BME280;35415;47.870;16.058;2023-03-11T00:09:04;95210.06;;;9.45;40.83
49515;BME280;35415;47.870;16.058;2023-03-11T00:11:31;95225.06;;;9.46;41.04
49515;BME280;35415;47.870;16.058;2023-03-11T00:13:58;95213.22;;;9.47;40.71
49515;BME280;35415;47.870;16.058;2023-03-11T00:16:25;95192.78;;;9.29;40.74
49515;BME280;35415;47.870;16.058;2023-03-11T00:18:52;95144.75;;;9.10;40.90
49515;BME280;35415;47.870;16.058;2023-03-11T00:21:21;95192.63;;;9.34;40.91
49515;BME280;35415;47.870;16.058;2023-03-11T00:23:48;95123.53;;;8.91;41.13
49515;BME280;35415;47.870;16.058;2023-03-11T00:26:15;95164.41;;;9.05;40.95
49515;BME280;35415;47.870;16.058;2023-03-11T00:28:42;95223.31;;;9.42;41.15
49515;BME280;35415;47.870;16.058;2023-03-11T00:31:11;95145.25;;;8.90;40.51
49515;BME280;35415;47.870;16.058;2023-03-11T00:33:38;95206.50;;;9.27;40.87
49515;BME280;35415;47.870;16.058;2023-03-11T00:36:06;95238.78;;;9.45;40.64
49515;BME280;35415;47.870;16.058;2023-03-11T00:38:35;95220.00;;;9.45;39.86
49515;BME280;35415;47.870;16.058;2023-03-11T00:41:03;95235.00;;;9.46;39.97
49515;BME280;35415;47.870;16.058;2023-03-11T00:43:30;95169.31;;;9.03;39.92
49515;BME280;35415;47.870;16.058;2023-03-11T00:45:57;95255.66;;;9.45;39.96
49515;BME280;35415;47.870;16.058;2023-03-11T00:48:24;95240.44;;;9.32;40.26
49515;BME280;35415;47.870;16.058;2023-03-11T00:50:51;95251.13;;;9.23;43.01
49515;BME280;35415;47.870;16.058;2023-03-11T00:53:18;95352.59;;;9.44;43.35
49515;BME280;35415;47.870;16.058;2023-03-11T00:55:47;95367.13;;;9.51;44.72
49515;BME280;35415;47.870;16.058;2023-03-11T00:58:14;95345.31;;;9.22;46.85
49515;BME280;35415;47.870;16.058;2023-03-11T01:00:41;95349.75;;;9.04;48.85
49515;BME280;35415;47.870;16.058;2023-03-11T01:03:09;95367.09;;;9.20;51.26
49515;BME280;35415;47.870;16.058;2023-03-11T01:05:38;95376.00;;;9.07;50.71
49515;BME280;35415;47.870;16.058;2023-03-11T01:08:05;95353.34;;;8.77;49.37
49515;BME280;35415;47.870;16.058;2023-03-11T01:10:33;95258.00;;;8.12;49.57
49515;BME280;35415;47.870;16.058;2023-03-11T01:13:03;95297.28;;;8.03;49.39
49515;BME280;35415;47.870;16.058;2023-03-11T01:15:32;95329.41;;;8.17;49.61
49515;BME280;35415;47.870;16.058;2023-03-11T01:18:00;95351.22;;;8.24;50.64
49515;BME280;35415;47.870;16.058;2023-03-11T01:20:28;95361.84;;;8.15;49.34
49515;BME280;35415;47.870;16.058;2023-03-11T01:22:55;95386.13;;;8.05;49.52
49515;BME280;35415;47.870;16.058;2023-03-11T01:25:23;95361.75;;;7.93;49.95
49515;BME280;35415;47.870;16.058;2023-03-11T01:27:51;95368.47;;;7.77;50.25
49515;BME280;35415;47.870;16.058;2023-03-11T01:30:21;95340.78;;;7.68;50.29
49515;BME280;35415;47.870;16.058;2023-03-11T01:32:49;95360.41;;;7.63;49.53
49515;BME280;35415;47.870;16.058;2023-03-11T01:35:19;95348.97;;;7.44;49.47
49515;BME280;35415;47.870;16.058;2023-03-11T01:37:47;95367.63;;;7.49;49.20
49515;BME280;35415;47.870;16.058;2023-03-11T01:40:18;95297.16;;;6.93;48.72
49515;BME280;35415;47.870;16.058;2023-03-11T01:42:46;95369.25;;;7.31;48.49
49515;BME280;35415;47.870;16.058;2023-03-11T01:45:39;95396.19;;;7.35;47.07
49515;BME280;35415;47.870;16.058;2023-03-11T01:48:08;95347.09;;;7.44;47.11
49515;BME280;35415;47.870;16.058;2023-03-11T01:50:40;95351.38;;;7.13;46.51
49515;BME280;35415;47.870;16.058;2023-03-11T01:53:10;95384.66;;;7.39;46.27
49515;BME280;35415;47.870;16.058;2023-03-11T01:55:39;95373.13;;;7.39;46.23
49515;BME280;35415;47.870;16.058;2023-03-11T01:58:10;95394.53;;;7.39;46.06
49515;BME280;35415;47.870;16.058;2023-03-11T02:00:41;95290.47;;;6.77;45.55
49515;BME280;35415;47.870;16.058;2023-03-11T02:03:13;95365.16;;;7.20;45.96
49515;BME280;35415;47.870;16.058;2023-03-11T02:05:42;95338.03;;;6.94;45.39
49515;BME280;35415;47.870;16.058;2023-03-11T02:08:10;95357.16;;;7.34;45.03
49515;BME280;35415;47.870;16.058;2023-03-11T02:10:39;95394.03;;;7.37;45.18
49515;BME280;35415;47.870;16.058;2023-03-11T02:13:07;95341.31;;;7.05;44.80
49515;BME280;35415;47.870;16.058;2023-03-11T02:15:35;95333.44;;;7.13;44.82
49515;BME280;35415;47.870;16.058;2023-03-11T02:18:05;95334.38;;;7.04;45.16
49515;BME280;35415;47.870;16.058;2023-03-11T02:20:41;95368.69;;;7.15;45.12
49515;BME280;35415;47.870;16.058;2023-03-11T02:23:13;95377.16;;;7.22;45.17
49515;BME280;35415;47.870;16.058;2023-03-11T02:25:49;95313.50;;;6.73;45.80
49515;BME280;35415;47.870;16.058;2023-03-11T02:28:19;95365.63;;;7.08;46.18
49515;BME280;35415;47.870;16.058;2023-03-11T02:30:47;95399.91;;;7.20;46.31
49515;BME280;35415;47.870;16.058;2023-03-11T02:33:18;95403.38;;;7.20;47.72
49515;BME280;35415;47.870;16.058;2023-03-11T02:35:46;95374.72;;;6.88;48.41
49515;BME280;35415;47.870;16.058;2023-03-11T02:38:13;95441.91;;;7.01;50.24
49515;BME280;35415;47.870;16.058;2023-03-11T02:40:46;95438.00;;;7.12;51.54
49515;BME280;35415;47.870;16.058;2023-03-11T02:43:19;95425.34;;;6.61;53.06
49515;BME280;35415;47.870;16.058;2023-03-11T02:45:48;95480.59;;;6.84;54.47
49515;BME280;35415;47.870;16.058;2023-03-11T02:48:16;95434.41;;;6.41;55.70
49515;BME280;35415;47.870;16.058;2023-03-11T02:50:45;95445.47;;;6.29;56.37
49515;BME280;35415;47.870;16.058;2023-03-11T02:53:13;95471.69;;;6.27;57.88
49515;BME280;35415;47.870;16.058;2023-03-11T02:55:40;95484.94;;;6.09;58.30
49515;BME280;35415;47.870;16.058;2023-03-11T02:58:07;95470.44;;;5.91;60.51
49515;BME280;35415;47.870;16.058;2023-03-11T03:00:36;95464.94;;;5.77;59.33
49515;BME280;35415;47.870;16.058;2023-03-11T03:03:03;95474.72;;;5.58;62.64
49515;BME280;35415;47.870;16.058;2023-03-11T03:05:31;95462.44;;;5.57;58.28
49515;BME280;35415;47.870;16.058;2023-03-11T03:07:58;95427.97;;;5.31;61.10
49515;BME280;35415;47.870;16.058;2023-03-11T03:10:27;95476.97;;;5.40;58.25
49515;BME280;35415;47.870;16.058;2023-03-11T03:12:55;95457.31;;;5.31;57.00
49515;BME280;35415;47.870;16.058;2023-03-11T03:15:22;95454.97;;;5.20;57.16
49515;BME280;35415;47.870;16.058;2023-03-11T03:17:51;95492.38;;;5.09;56.79
49515;BME280;35415;47.870;16.058;2023-03-11T03:20:18;95482.00;;;5.03;56.91
49515;BME280;35415;47.870;16.058;2023-03-11T03:22:48;95482.31;;;4.96;56.80
49515;BME280;35415;47.870;16.058;2023-03-11T03:25:17;95480.53;;;4.81;56.95
49515;BME280;35415;47.870;16.058;2023-03-11T03:27:44;95483.47;;;4.80;56.54
49515;BME280;35415;47.870;16.058;2023-03-11T03:30:12;95448.72;;;4.56;56.78
49515;BME280;35415;47.870;16.058;2023-03-11T03:32:39;95489.38;;;4.67;55.45
49515;BME280;35415;47.870;16.058;2023-03-11T03:35:09;95473.72;;;4.60;54.29
49515;BME280;35415;47.870;16.058;2023-03-11T03:37:36;95493.97;;;4.56;53.46
49515;BME280;35415;47.870;16.058;2023-03-11T03:40:05;95487.56;;;4.52;52.76
49515;BME280;35415;47.870;16.058;2023-03-11T03:42:34;95475.84;;;4.53;50.48
49515;BME280;35415;47.870;16.058;2023-03-11T03:45:02;95486.53;;;4.48;50.53
49515;BME280;35415;47.870;16.058;2023-03-11T03:47:30;95506.78;;;4.44;50.53
49515;BME280;35415;47.870;16.058;2023-03-11T03:49:58;95462.06;;;4.41;48.25
49515;BME280;35415;47.870;16.058;2023-03-11T03:52:27;95458.91;;;4.39;46.84
49515;BME280;35415;47.870;16.058;2023-03-11T03:54:54;95466.09;;;4.38;46.58
49515;BME280;35415;47.870;16.058;2023-03-11T03:57:21;95469.81;;;4.37;46.59
49515;BME280;35415;47.870;16.058;2023-03-11T03:59:48;95484.44;;;4.35;46.97
49515;BME280;35415;47.870;16.058;2023-03-11T04:02:16;95446.47;;;4.09;46.43
49515;BME280;35415;47.870;16.058;2023-03-11T04:04:43;95395.72;;;3.85;45.76
49515;BME280;35415;47.870;16.058;2023-03-11T04:07:10;95451.72;;;4.29;44.50
49515;BME280;35415;47.870;16.058;2023-03-11T04:09:42;95473.84;;;4.25;44.29
49515;BME280;35415;47.870;16.058;2023-03-11T04:12:12;95430.25;;;4.00;44.44
49515;BME280;35415;47.870;16.058;2023-03-11T04:14:43;95453.13;;;4.11;43.54
49515;BME280;35415;47.870;16.058;2023-03-11T04:17:10;95480.22;;;4.18;42.85
49515;BME280;35415;47.870;16.058;2023-03-11T04:19:38;95360.63;;;3.88;42.07
49515;BME280;35415;47.870;16.058;2023-03-11T04:22:05;95406.16;;;3.66;41.35
49515;BME280;35415;47.870;16.058;2023-03-11T04:24:35;95449.16;;;4.04;40.99
49515;BME280;35415;47.870;16.058;2023-03-11T04:27:04;95453.19;;;3.81;41.62
49515;BME280;35415;47.870;16.058;2023-03-11T04:29:31;95345.34;;;3.24;41.33
49515;BME280;35415;47.870;16.058;2023-03-11T04:31:59;95451.56;;;3.85;41.25
49515;BME280;35415;47.870;16.058;2023-03-11T04:34:26;95417.88;;;3.50;40.15
49515;BME280;35415;47.870;16.058;2023-03-11T04:36:57;95444.72;;;3.58;40.54
49515;BME280;35415;47.870;16.058;2023-03-11T04:39:26;95465.19;;;3.63;39.74
49515;BME280;35415;47.870;16.058;2023-03-11T04:41:53;95518.59;;;3.82;39.90
49515;BME280;35415;47.870;16.058;2023-03-11T04:44:22;95481.13;;;3.63;39.81
49515;BME280;35415;47.870;16.058;2023-03-11T04:46:49;95505.31;;;3.77;39.30
49515;BME280;35415;47.870;16.058;2023-03-11T04:49:17;95530.84;;;3.78;38.90
49515;BME280;35415;47.870;16.058;2023-03-11T04:51:46;95473.16;;;3.73;38.77
49515;BME280;35415;47.870;16.058;2023-03-11T04:54:13;95491.22;;;3.46;38.61
49515;BME280;35415;47.870;16.058;2023-03-11T04:56:43;95430.63;;;3.12;38.84
49515;BME280;35415;47.870;16.058;2023-03-11T04:59:10;95486.97;;;3.65;38.51
49515;BME280;35415;47.870;16.058;2023-03-11T05:01:39;95517.28;;;3.64;39.23
49515;BME280;35415;47.870;16.058;2023-03-11T05:04:09;95446.03;;;3.30;38.54
49515;BME280;35415;47.870;16.058;2023-03-11T05:06:37;95491.25;;;3.56;39.10
49515;BME280;35415;47.870;16.058;2023-03-11T05:09:08;95464.13;;;3.44;38.24
49515;BME280;35415;47.870;16.058;2023-03-11T05:11:36;95484.06;;;3.36;37.80
49515;BME280;35415;47.870;16.058;2023-03-11T05:14:03;95505.59;;;3.55;38.50
49515;BME280;35415;47.870;16.058;2023-03-11T05:16:30;95445.75;;;3.01;38.34
49515;BME280;35415;47.870;16.058;2023-03-11T05:18:59;95480.31;;;3.32;38.55
49515;BME280;35415;47.870;16.058;2023-03-11T05:21:27;95517.56;;;3.57;38.47
49515;BME280;35415;47.870;16.058;2023-03-11T05:23:55;95482.19;;;3.42;38.79
49515;BME280;35415;47.870;16.058;2023-03-11T05:26:22;95523.41;;;3.54;38.65
49515;BME280;35415;47.870;16.058;2023-03-11T05:28:50;95524.22;;;3.55;38.32
49515;BME280;35415;47.870;16.058;2023-03-11T05:31:18;95505.31;;;3.51;38.47
49515;BME280;35415;47.870;16.058;2023-03-11T05:33:45;95543.59;;;3.60;37.78
49515;BME280;35415;47.870;16.058;2023-03-11T05:36:14;95507.72;;;3.58;38.16
49515;BME280;35415;47.870;16.058;2023-03-11T05:38:41;95404.06;;;2.97;38.49
49515;BME280;35415;47.870;16.058;2023-03-11T05:41:08;95527.94;;;3.59;38.14
49515;BME280;35415;47.870;16.058;2023-03-11T05:43:37;95440.44;;;3.01;38.30
49515;BME280;35415;47.870;16.058;2023-03-11T05:46:04;95478.47;;;3.43;38.97
49515;BME280;35415;47.870;16.058;2023-03-11T05:48:31;95513.03;;;3.53;38.34
49515;BME280;35415;47.870;16.058;2023-03-11T05:50:58;95413.91;;;3.22;38.86
49515;BME280;35415;47.870;16.058;2023-03-11T05:53:27;95434.91;;;3.03;38.51
49515;BME280;35415;47.870;16.058;2023-03-11T05:55:55;95482.44;;;3.25;38.39
49515;BME280;35415;47.870;16.058;2023-03-11T05:58:24;95507.72;;;3.53;38.70
49515;BME280;35415;47.870;16.058;2023-03-11T06:00:51;95445.78;;;3.07;39.01
49515;BME280;35415;47.870;16.058;2023-03-11T06:03:19;95443.13;;;3.37;38.63
49515;BME280;35415;47.870;16.058;2023-03-11T06:05:48;95531.91;;;3.56;38.57
49515;BME280;35415;47.870;16.058;2023-03-11T06:08:16;95471.03;;;3.55;38.47
49515;BME280;35415;47.870;16.058;2023-03-11T06:10:45;95464.66;;;3.46;37.90
49515;BME280;35415;47.870;16.058;2023-03-11T06:13:12;95501.59;;;3.37;37.95
49515;BME280;35415;47.870;16.058;2023-03-11T06:15:39;95408.59;;;3.22;38.03
49515;BME280;35415;47.870;16.058;2023-03-11T06:18:06;95511.44;;;3.47;37.74
49515;BME280;35415;47.870;16.058;2023-03-11T06:20:33;95434.63;;;3.30;38.12
49515;BME280;35415;47.870;16.058;2023-03-11T06:23:02;95441.81;;;3.24;38.21
49515;BME280;35415;47.870;16.058;2023-03-11T06:25:29;95522.59;;;3.69;38.24
49515;BME280;35415;47.870;16.058;2023-03-11T06:27:57;95471.53;;;3.16;38.32
49515;BME280;35415;47.870;16.058;2023-03-11T06:30:25;95381.50;;;3.05;38.73
49515;BME280;35415;47.870;16.058;2023-03-11T06:32:52;95465.47;;;3.41;38.34
49515;BME280;35415;47.870;16.058;2023-03-11T06:35:19;95478.75;;;3.56;38.78
49515;BME280;35415;47.870;16.058;2023-03-11T06:37:47;95448.72;;;3.46;38.52
49515;BME280;35415;47.870;16.058;2023-03-11T06:42:44;95439.41;;;3.53;38.77
49515;BME280;35415;47.870;16.058;2023-03-11T06:45:16;95428.50;;;3.35;38.75
49515;BME280;35415;47.870;16.058;2023-03-11T06:47:44;95406.47;;;3.29;39.02
49515;BME280;35415;47.870;16.058;2023-03-11T06:50:11;95397.69;;;3.28;39.57
49515;BME280;35415;47.870;16.058;2023-03-11T06:52:39;95508.22;;;3.96;39.50
49515;BME280;35415;47.870;16.058;2023-03-11T06:55:06;95498.69;;;3.59;39.27
49515;BME280;35415;47.870;16.058;2023-03-11T06:57:34;95497.88;;;3.69;39.72
49515;BME280;35415;47.870;16.058;2023-03-11T07:00:03;95581.09;;;3.95;39.83
49515;BME280;35415;47.870;16.058;2023-03-11T07:02:34;95541.22;;;3.95;39.94
49515;BME280;35415;47.870;16.058;2023-03-11T07:05:01;95579.25;;;3.70;40.21
49515;BME280;35415;47.870;16.058;2023-03-11T07:07:30;95626.06;;;4.01;39.65
49515;BME280;35415;47.870;16.058;2023-03-11T07:09:57;95557.97;;;3.85;39.68
49515;BME280;35415;47.870;16.058;2023-03-11T07:12:30;95555.84;;;4.07;40.27
49515;BME280;35415;47.870;16.058;2023-03-11T07:15:11;95606.09;;;4.14;40.67
49515;BME280;35415;47.870;16.058;2023-03-11T07:17:42;95522.59;;;3.74;40.77
49515;BME280;35415;47.870;16.058;2023-03-11T07:20:10;95512.50;;;3.66;41.30
49515;BME280;35415;47.870;16.058;2023-03-11T07:22:38;95520.72;;;3.65;41.25
49515;BME280;35415;47.870;16.058;2023-03-11T07:25:08;95557.16;;;4.10;41.25
49515;BME280;35415;47.870;16.058;2023-03-11T07:27:38;95614.09;;;4.04;41.85
49515;BME280;35415;47.870;16.058;2023-03-11T07:30:08;95552.41;;;3.71;42.19
49515;BME280;35415;47.870;16.058;2023-03-11T07:32:36;95609.31;;;4.06;41.14
49515;BME280;35415;47.870;16.058;2023-03-11T07:35:08;95619.69;;;4.22;41.28
49515;BME280;35415;47.870;16.058;2023-03-11T07:37:37;95591.75;;;3.95;41.20
49515;BME280;35415;47.870;16.058;2023-03-11T07:40:06;95601.03;;;4.02;41.51
49515;BME280;35415;47.870;16.058;2023-03-11T07:42:35;95602.66;;;4.03;40.98
49515;BME280;35415;47.870;16.058;2023-03-11T07:45:08;95643.06;;;4.36;40.69
49515;BME280;35415;47.870;16.058;2023-03-11T07:47:46;95633.78;;;4.18;40.72
49515;BME280;35415;47.870;16.058;2023-03-11T07:50:15;95611.69;;;4.33;40.13
49515;BME280;35415;47.870;16.058;2023-03-11T07:52:43;95605.28;;;4.18;39.25
49515;BME280;35415;47.870;16.058;2023-03-11T07:55:13;95542.78;;;4.01;38.60
49515;BME280;35415;47.870;16.058;2023-03-11T07:57:42;95588.53;;;4.13;39.00
49515;BME280;35415;47.870;16.058;2023-03-11T08:00:10;95639.34;;;4.47;38.76
49515;BME280;35415;47.870;16.058;2023-03-11T08:02:38;95563.00;;;4.02;38.98
49515;BME280;35415;47.870;16.058;2023-03-11T08:05:15;95566.97;;;4.40;38.68
49515;BME280;35415;47.870;16.058;2023-03-11T08:07:43;95557.94;;;4.15;38.64
49515;BME280;35415;47.870;16.058;2023-03-11T08:10:18;95583.19;;;4.43;38.65
49515;BME280;35415;47.870;16.058;2023-03-11T08:13:03;95614.53;;;4.67;38.28
49515;BME280;35415;47.870;16.058;2023-03-11T08:15:38;95656.03;;;4.93;38.51
49515;BME280;35415;47.870;16.058;2023-03-11T08:18:11;95619.25;;;4.95;38.56
49515;BME280;35415;47.870;16.058;2023-03-11T08:20:39;95630.19;;;4.94;38.62
49515;BME280;35415;47.870;16.058;2023-03-11T08:23:06;95647.50;;;4.96;38.62
49515;BME280;35415;47.870;16.058;2023-03-11T08:25:38;95577.88;;;4.43;38.01
49515;BME280;35415;47.870;16.058;2023-03-11T08:28:07;95541.63;;;4.47;38.37
49515;BME280;35415;47.870;16.058;2023-03-11T08:30:35;95588.50;;;4.48;39.01
49515;BME280;35415;47.870;16.058;2023-03-11T08:33:05;95606.75;;;4.86;38.81
49515;BME280;35415;47.870;16.058;2023-03-11T08:35:33;95590.31;;;4.73;39.21
49515;BME280;35415;47.870;16.058;2023-03-11T08:38:02;95587.69;;;4.58;38.93
49515;BME280;35415;47.870;16.058;2023-03-11T08:40:30;95668.22;;;5.14;38.53
49515;BME280;35415;47.870;16.058;2023-03-11T08:43:02;95634.19;;;4.96;38.52
49515;BME280;35415;47.870;16.058;2023-03-11T08:45:38;95633.72;;;4.74;38.65
49515;BME280;35415;47.870;16.058;2023-03-11T08:48:11;95662.69;;;5.06;38.62
49515;BME280;35415;47.870;16.058;2023-03-11T08:50:39;95702.06;;;5.19;38.62
49515;BME280;35415;47.870;16.058;2023-03-11T08:53:10;95691.66;;;5.28;39.07
49515;BME280;35415;47.870;16.058;2023-03-11T08:55:38;95637.69;;;4.81;38.71
49515;BME280;35415;47.870;16.058;2023-03-11T08:58:05;95683.22;;;4.95;39.10
49515;BME280;35415;47.870;16.058;2023-03-11T09:00:36;95654.19;;;4.83;38.97
49515;BME280;35415;47.870;16.058;2023-03-11T09:03:06;95699.66;;;5.28;38.64
49515;BME280;35415;47.870;16.058;2023-03-11T09:05:33;95679.63;;;5.30;38.49
49515;BME280;35415;47.870;16.058;2023-03-11T09:08:01;95684.19;;;5.20;38.49
49515;BME280;35415;47.870;16.058;2023-03-11T09:10:31;95729.44;;;5.55;38.39
49515;BME280;35415;47.870;16.058;2023-03-11T09:12:58;95750.97;;;5.64;37.82
49515;BME280;35415;47.870;16.058;2023-03-11T09:15:25;95757.97;;;5.55;37.46
49515;BME280;35415;47.870;16.058;2023-03-11T09:17:52;95735.66;;;5.15;37.82
49515;BME280;35415;47.870;16.058;2023-03-11T09:20:20;95727.88;;;5.39;37.67
49515;BME280;35415;47.870;16.058;2023-03-11T09:22:49;95755.53;;;5.53;38.08
49515;BME280;35415;47.870;16.058;2023-03-11T09:25:17;95754.47;;;5.59;38.46
49515;BME280;35415;47.870;16.058;2023-03-11T09:27:45;95817.06;;;5.82;38.00
49515;BME280;35415;47.870;16.058;2023-03-11T09:30:13;95810.13;;;5.81;38.57
49515;BME280;35415;47.870;16.058;2023-03-11T09:32:41;95820.25;;;5.84;38.26
49515;BME280;35415;47.870;16.058;2023-03-11T09:35:09;95787.50;;;5.73;38.44
49515;BME280;35415;47.870;16.058;2023-03-11T09:37:37;95766.72;;;5.65;37.68
49515;BME280;35415;47.870;16.058;2023-03-11T09:40:07;95802.16;;;5.71;37.19
49515;BME280;35415;47.870;16.058;2023-03-11T09:42:40;95761.91;;;5.67;37.54
49515;BME280;35415;47.870;16.058;2023-03-11T09:45:15;95811.94;;;6.01;37.30
49515;BME280;35415;47.870;16.058;2023-03-11T09:48:02;95842.59;;;6.14;36.52
49515;BME280;35415;47.870;16.058;2023-03-11T09:50:51;95769.94;;;5.52;35.30
49515;BME280;35415;47.870;16.058;2023-03-11T09:53:29;95793.13;;;5.62;35.74
49515;BME280;35415;47.870;16.058;2023-03-11T09:56:04;95830.69;;;5.81;35.60
49515;BME280;35415;47.870;16.058;2023-03-11T09:58:38;95781.72;;;5.46;35.69
49515;BME280;35415;47.870;16.058;2023-03-11T10:01:23;95862.16;;;5.89;35.81
49515;BME280;35415;47.870;16.058;2023-03-11T10:03:54;95890.44;;;6.05;35.94
49515;BME280;35415;47.870;16.058;2023-03-11T10:06:23;95820.59;;;5.72;35.96
49515;BME280;35415;47.870;16.058;2023-03-11T10:08:59;95843.03;;;5.56;36.20
49515;BME280;35415;47.870;16.058;2023-03-11T10:11:50;95868.84;;;5.91;36.23
49515;BME280;35415;47.870;16.058;2023-03-11T10:14:42;95899.97;;;6.16;35.59
49515;BME280;35415;47.870;16.058;2023-03-11T10:17:21;95898.91;;;6.17;35.35
49515;BME280;35415;47.870;16.058;2023-03-11T10:20:06;95868.81;;;5.96;35.59
49515;BME280;35415;47.870;16.058;2023-03-11T10:22:42;95844.88;;;5.66;35.32
49515;BME280;35415;47.870;16.058;2023-03-11T10:25:15;95872.59;;;5.70;36.21
49515;BME280;35415;47.870;16.058;2023-03-11T10:27:52;95817.72;;;5.33;35.31
49515;BME280;35415;47.870;16.058;2023-03-11T10:30:25;95795.09;;;5.16;35.94
49515;BME280;35415;47.870;16.058;2023-03-11T10:32:58;95861.41;;;5.53;36.39
49515;BME280;35415;47.870;16.058;2023-03-11T10:35:35;95897.41;;;5.65;35.52
49515;BME280;35415;47.870;16.058;2023-03-11T10:38:12;95871.56;;;5.51;35.14
49515;BME280;35415;47.870;16.058;2023-03-11T10:40:42;95926.72;;;6.01;35.31
49515;BME280;35415;47.870;16.058;2023-03-11T10:43:13;95863.00;;;5.64;35.09
49515;BME280;35415;47.870;16.058;2023-03-11T10:45:43;95950.44;;;6.23;33.77
49515;BME280;35415;47.870;16.058;2023-03-11T10:48:16;95949.34;;;6.29;33.55
49515;BME280;35415;47.870;16.058;2023-03-11T10:50:51;95906.97;;;6.07;33.67
49515;BME280;35415;47.870;16.058;2023-03-11T10:53:21;95974.66;;;6.47;33.55
49515;BME280;35415;47.870;16.058;2023-03-11T10:55:51;95908.28;;;6.04;34.16
49515;BME280;35415;47.870;16.058;2023-03-11T10:58:22;95907.25;;;6.00;33.66
49515;BME280;35415;47.870;16.058;2023-03-11T11:01:02;96001.34;;;6.52;33.44
49515;BME280;35415;47.870;16.058;2023-03-11T11:03:32;95882.66;;;6.03;33.06
49515;BME280;35415;47.870;16.058;2023-03-11T11:06:04;95938.97;;;6.17;33.09
49515;BME280;35415;47.870;16.058;2023-03-11T11:08:36;95928.81;;;6.19;32.51
49515;BME280;35415;47.870;16.058;2023-03-11T11:11:09;95964.59;;;6.18;32.71
49515;BME280;35415;47.870;16.058;2023-03-11T11:13:56;95944.34;;;6.07;33.20
49515;BME280;35415;47.870;16.058;2023-03-11T11:16:32;95976.38;;;6.02;32.92
49515;BME280;35415;47.870;16.058;2023-03-11T11:19:06;95947.00;;;6.02;34.09
49515;BME280;35415;47.870;16.058;2023-03-11T11:21:39;95945.69;;;5.89;34.00
49515;BME280;35415;47.870;16.058;2023-03-11T11:24:17;95979.53;;;6.19;34.24
49515;BME280;35415;47.870;16.058;2023-03-11T11:27:04;95965.16;;;6.00;34.54
49515;BME280;35415;47.870;16.058;2023-03-11T11:29:33;95946.19;;;5.86;34.57
49515;BME280;35415;47.870;16.058;2023-03-11T11:32:22;95992.88;;;6.19;34.36
49515;BME280;35415;47.870;16.058;2023-03-11T11:34:58;95916.63;;;5.62;34.64
49515;BME280;35415;47.870;16.058;2023-03-11T11:37:28;95895.03;;;5.49;35.06
49515;BME280;35415;47.870;16.058;2023-03-11T11:40:03;95925.97;;;5.55;34.78
49515;BME280;35415;47.870;16.058;2023-03-11T11:42:37;95967.28;;;5.83;34.80
49515;BME280;35415;47.870;16.058;2023-03-11T11:45:13;95950.75;;;5.70;34.79
49515;BME280;35415;47.870;16.058;2023-03-11T11:47:46;95960.91;;;5.68;34.21
49515;BME280;35415;47.870;16.058;2023-03-11T11:50:27;95995.56;;;5.84;33.94
49515;BME280;35415;47.870;16.058;2023-03-11T11:53:02;95993.97;;;5.83;34.15
49515;BME280;35415;47.870;16.058;2023-03-11T11:55:32;96032.94;;;5.89;34.80
49515;BME280;35415;47.870;16.058;2023-03-11T11:58:00;96012.94;;;5.81;34.82
49515;BME280;35415;47.870;16.058;2023-03-11T12:00:33;96033.47;;;5.81;34.89
49515;BME280;35415;47.870;16.058;2023-03-11T12:03:17;96029.75;;;5.77;35.28
49515;BME280;35415;47.870;16.058;2023-03-11T12:05:55;96038.00;;;5.70;35.41
49515;BME280;35415;47.870;16.058;2023-03-11T12:08:31;96012.66;;;5.67;35.78
49515;BME280;35415;47.870;16.058;2023-03-11T12:11:04;96039.06;;;5.64;36.03
49515;BME280;35415;47.870;16.058;2023-03-11T12:13:49;96025.97;;;5.52;36.39
49515;BME280;35415;47.870;16.058;2023-03-11T12:16:27;96037.72;;;5.51;36.66
49515;BME280;35415;47.870;16.058;2023-03-11T12:18:59;96044.66;;;5.52;36.56
49515;BME280;35415;47.870;16.058;2023-03-11T12:21:35;96022.78;;;5.50;36.49
49515;BME280;35415;47.870;16.058;2023-03-11T12:24:18;96046.47;;;5.36;36.98
49515;BME280;35415;47.870;16.058;2023-03-11T12:26:51;95999.00;;;5.18;36.80
49515;BME280;35415;47.870;16.058;2023-03-11T12:29:26;96000.59;;;5.09;37.10
49515;BME280;35415;47.870;16.058;2023-03-11T12:31:56;96000.28;;;4.90;37.20
49515;BME280;35415;47.870;16.058;2023-03-11T12:34:27;96026.75;;;5.22;37.19
49515;BME280;35415;47.870;16.058;2023-03-11T12:37:21;96040.63;;;5.24;37.52
49515;BME280;35415;47.870;16.058;2023-03-11T12:39:49;96060.84;;;5.20;38.01
49515;BME280;35415;47.870;16.058;2023-03-11T12:42:19;96058.38;;;5.03;37.80
49515;BME280;35415;47.870;16.058;2023-03-11T12:55:35;96082.16;;;5.15;37.69
49515;BME280;35415;47.870;16.058;2023-03-11T13:04:51;96085.34;;;5.07;38.28
49515;BME280;35415;47.870;16.058;2023-03-11T13:07:47;96085.03;;;5.03;38.81
49515;BME280;35415;47.870;16.058;2023-03-11T13:16:38;96103.75;;;5.08;38.84
49515;BME280;35415;47.870;16.058;2023-03-11T13:19:32;96144.88;;;5.33;38.77
49515;BME280;35415;47.870;16.058;2023-03-11T13:28:18;96139.28;;;5.34;38.53
49515;BME280;35415;47.870;16.058;2023-03-11T13:31:02;96046.31;;;4.80;38.35
49515;BME280;35415;47.870;16.058;2023-03-11T13:33:44;96139.00;;;5.31;38.72
49515;BME280;35415;47.870;16.058;2023-03-11T13:36:37;96161.66;;;5.33;38.64
49515;BME280;35415;47.870;16.058;2023-03-11T13:39:29;96154.19;;;5.25;39.00
49515;BME280;35415;47.870;16.058;2023-03-11T13:41:59;96136.06;;;5.22;39.22
49515;BME280;35415;47.870;16.058;2023-03-11T13:44:33;96175.72;;;5.19;39.58
49515;BME280;35415;47.870;16.058;2023-03-11T13:47:06;96179.19;;;5.14;39.60
49515;BME280;35415;47.870;16.058;2023-03-11T13:49:42;96137.53;;;5.03;39.66
49515;BME280;35415;47.870;16.058;2023-03-11T13:52:14;96158.66;;;5.09;39.57